Time;durP1;ratioP1;P1;durP2;ratioP2;P2;SDS_P1;SDS_P2;PMS_P1;PMS_P2;Temp;Humidity;BMP_temperature;BMP_pressure;BME280_temperature;BME280_humidity;BME280_pressure;Samples;Min_cycle;Max_cycle;Signal;HPM_P1;HPM_P2
2022/01/18 00:01:11;;;;;;;8.95;2.80;;;;;;;0.78;84.01;102581.63;5020611;28;20025;-24
2022/01/18 00:03:37;;;;;;;12.63;3.03;;;;;;;0.75;83.96;102581.41;5023275;28;20033;-23
2022/01/18 00:06:03;;;;;;;14.93;3.75;;;;;;;0.72;84.35;102582.13;5024531;28;20156;-23
2022/01/18 00:08:29;;;;;;;9.25;2.85;;;;;;;0.69;84.01;102586.22;5025035;28;20488;-23
2022/01/18 00:10:55;;;;;;;7.15;2.60;;;;;;;0.67;84.32;102593.03;5022110;28;20037;-24
2022/01/18 00:13:37;;;;;;;6.25;3.00;;;;;;;0.66;84.31;102593.84;5019417;28;20040;-23
2022/01/18 00:18:31;;;;;;;6.38;2.72;;;;;;;0.62;84.33;102600.53;5023592;28;20026;-23
2022/01/18 00:23:29;;;;;;;9.32;2.50;;;;;;;0.57;84.38;102602.81;5018824;28;20030;-23
2022/01/18 00:25:57;;;;;;;9.02;3.30;;;;;;;0.55;84.45;102604.44;5023689;28;20370;-24
2022/01/18 00:28:24;;;;;;;7.03;3.10;;;;;;;0.52;84.63;102604.25;5023512;28;20037;-24
2022/01/18 00:33:51;;;;;;;12.45;2.97;;;;;;;0.50;84.30;102606.75;5020897;28;20048;-24
2022/01/18 00:36:35;;;;;;;9.43;2.55;;;;;;;0.46;84.40;102609.94;5022569;28;20048;-24
2022/01/18 00:39:01;;;;;;;9.82;2.95;;;;;;;0.46;84.26;102622.00;5023308;28;20502;-24
2022/01/18 00:41:27;;;;;;;7.40;2.80;;;;;;;0.44;84.67;102627.13;5020399;28;20043;-23
2022/01/18 00:43:53;;;;;;;11.15;3.33;;;;;;;0.42;84.62;102630.41;5021907;28;20504;-24
2022/01/18 00:46:19;;;;;;;13.73;4.15;;;;;;;0.41;84.35;102639.00;5020913;28;20017;-23
2022/01/18 00:48:45;;;;;;;7.90;2.60;;;;;;;0.40;84.59;102639.81;5021741;28;20403;-24
2022/01/18 00:51:14;;;;;;;12.07;3.80;;;;;;;0.38;84.49;102643.22;5023524;28;20061;-23
2022/01/18 00:53:42;;;;;;;5.95;2.75;;;;;;;0.37;84.68;102644.00;5024944;28;20128;-23
2022/01/18 00:56:27;;;;;;;6.72;2.78;;;;;;;0.36;84.72;102642.22;5023834;28;20056;-23
2022/01/18 00:58:53;;;;;;;7.22;3.92;;;;;;;0.35;84.86;102645.59;5021901;28;20151;-24
2022/01/18 01:01:22;;;;;;;8.73;2.92;;;;;;;0.35;84.23;102652.50;5021492;28;20474;-23
2022/01/18 01:03:49;;;;;;;8.13;2.95;;;;;;;0.32;84.42;102650.59;5016844;28;20489;-23
2022/01/18 01:06:15;;;;;;;7.90;2.65;;;;;;;0.31;84.76;102645.31;5019836;28;20100;-23
2022/01/18 01:08:42;;;;;;;6.57;3.10;;;;;;;0.29;84.22;102647.78;5022766;28;20040;-24
2022/01/18 01:11:09;;;;;;;7.30;2.72;;;;;;;0.29;84.26;102647.78;5021081;28;20481;-24
2022/01/18 01:13:37;;;;;;;9.85;2.95;;;;;;;0.28;84.94;102653.78;5021899;28;20113;-24
2022/01/18 01:34:55;;;;;;;5.43;2.60;;;;;;;0.23;85.31;102660.34;5022642;28;20493;-24
2022/01/18 01:45:34;;;;;;;11.18;4.43;;;;;;;0.25;85.62;102661.38;5029186;28;20021;-24
2022/01/18 01:48:01;;;;;;;9.40;2.58;;;;;;;0.27;85.20;102667.59;5024693;28;20041;-23
2022/01/18 01:50:40;;;;;;;8.98;3.28;;;;;;;0.28;85.07;102666.78;5023210;28;20026;-24
2022/01/18 01:53:06;;;;;;;5.90;2.90;;;;;;;0.29;85.09;102660.78;5026655;28;20588;-23
2022/01/18 01:55:32;;;;;;;8.93;3.35;;;;;;;0.30;85.43;102657.38;5027231;28;20041;-24
2022/01/18 01:57:57;;;;;;;13.38;2.80;;;;;;;0.30;85.36;102649.59;5027552;28;20443;-24
2022/01/18 02:00:23;;;;;;;9.02;3.15;;;;;;;0.31;85.22;102642.72;5023382;28;20018;-23
2022/01/18 02:02:49;;;;;;;9.57;2.95;;;;;;;0.32;85.50;102636.72;5022319;28;20036;-24
2022/01/18 02:05:15;;;;;;;7.20;2.80;;;;;;;0.34;85.26;102642.91;5020718;28;20187;-24
2022/01/18 02:07:41;;;;;;;7.25;2.53;;;;;;;0.35;85.35;102642.09;5024668;28;20091;-24
2022/01/18 02:10:10;;;;;;;8.02;3.03;;;;;;;0.36;84.97;102642.22;5024878;28;20420;-23
2022/01/18 02:12:36;;;;;;;8.07;2.22;;;;;;;0.38;85.33;102643.22;5024425;28;20061;-23
2022/01/18 02:15:13;;;;;;;7.15;2.85;;;;;;;0.40;85.48;102632.03;5029503;28;20029;-24
2022/01/18 02:23:16;;;;;;;6.60;2.50;;;;;;;0.45;85.08;102633.22;5025585;28;20041;-24
2022/01/18 02:25:42;;;;;;;8.30;2.88;;;;;;;0.44;85.03;102637.53;5029892;28;20021;-24
2022/01/18 02:28:10;;;;;;;6.57;2.40;;;;;;;0.48;85.49;102638.59;5025713;28;20485;-24
2022/01/18 02:30:35;;;;;;;9.55;2.92;;;;;;;0.48;85.10;102634.31;5025578;28;20477;-24
2022/01/18 02:33:01;;;;;;;12.38;3.33;;;;;;;0.48;85.39;102636.91;5024374;28;20033;-24
2022/01/18 02:35:27;;;;;;;6.47;2.60;;;;;;;0.51;85.54;102638.81;5025475;28;20022;-24
2022/01/18 02:37:54;;;;;;;9.98;2.95;;;;;;;0.53;85.34;102649.28;5027860;28;20021;-24
2022/01/18 02:40:20;;;;;;;8.38;2.53;;;;;;;0.53;84.96;102644.09;5021940;28;20042;-24
2022/01/18 02:42:56;;;;;;;6.15;2.13;;;;;;;0.55;85.12;102639.88;5028668;28;20477;-24
2022/01/18 02:45:22;;;;;;;7.50;2.38;;;;;;;0.56;84.97;102627.00;5024927;28;20045;-24
2022/01/18 02:47:48;;;;;;;7.70;2.72;;;;;;;0.56;85.06;102613.16;5024828;28;20045;-24
2022/01/18 02:50:14;;;;;;;4.97;2.83;;;;;;;0.57;85.12;102623.59;5025108;28;20121;-24
2022/01/18 02:52:40;;;;;;;7.15;2.70;;;;;;;0.59;85.45;102635.00;5026200;28;20503;-24
2022/01/18 02:55:06;;;;;;;4.85;2.17;;;;;;;0.60;85.54;102643.69;5023569;28;20500;-24
2022/01/18 02:57:41;;;;;;;7.75;2.65;;;;;;;0.61;85.37;102649.00;5019923;28;20460;-24
2022/01/18 03:00:19;;;;;;;6.22;2.63;;;;;;;0.61;84.97;102646.41;5026080;28;20473;-23
2022/01/18 03:05:28;;;;;;;5.28;1.98;;;;;;;0.65;85.45;102647.47;5026252;28;20044;-24
2022/01/18 03:07:54;;;;;;;5.07;2.13;;;;;;;0.66;85.07;102653.59;5024809;28;20218;-24
2022/01/18 03:10:20;;;;;;;11.10;2.63;;;;;;;0.66;85.16;102646.66;5024097;28;20076;-24
2022/01/18 03:12:46;;;;;;;6.40;2.28;;;;;;;0.67;84.99;102651.09;5026578;28;20087;-24
2022/01/18 03:15:12;;;;;;;5.95;2.53;;;;;;;0.68;85.33;102657.16;5022687;28;20310;-23
2022/01/18 03:17:38;;;;;;;6.05;2.03;;;;;;;0.69;85.24;102658.94;5025327;28;20511;-23
2022/01/18 03:20:05;;;;;;;7.82;2.28;;;;;;;0.71;85.07;102659.94;5026102;28;20481;-24
2022/01/18 03:22:31;;;;;;;8.07;2.80;;;;;;;0.71;85.49;102658.28;5024625;28;20533;-24
2022/01/18 03:25:13;;;;;;;11.73;2.42;;;;;;;0.72;85.04;102659.16;5025528;28;20053;-24
2022/01/18 03:30:42;;;;;;;3.70;2.03;;;;;;;0.74;85.09;102663.63;4998706;28;20563;-24
2022/01/18 03:33:13;;;;;;;5.32;2.22;;;;;;;0.75;84.83;102665.44;5019571;28;20040;-24
2022/01/18 03:35:40;;;;;;;4.35;2.00;;;;;;;0.77;84.99;102662.97;5027001;28;20034;-23
2022/01/18 03:38:07;;;;;;;9.77;2.13;;;;;;;0.77;85.42;102669.03;5021675;28;20409;-24
2022/01/18 03:40:32;;;;;;;5.60;2.75;;;;;;;0.78;85.18;102675.13;5023805;28;20029;-24
2022/01/18 03:42:59;;;;;;;6.40;2.67;;;;;;;0.80;85.32;102675.25;5024970;28;20433;-23
2022/01/18 03:45:29;;;;;;;6.35;2.10;;;;;;;0.80;85.12;102678.72;5020242;28;20025;-24
2022/01/18 03:47:58;;;;;;;9.20;2.10;;;;;;;0.81;85.29;102677.94;5022666;28;20091;-24
2022/01/18 03:50:24;;;;;;;7.45;2.13;;;;;;;0.82;85.21;102677.13;5024449;28;20604;-24
2022/01/18 03:52:50;;;;;;;3.40;2.05;;;;;;;0.83;85.15;102678.91;5024607;28;20505;-24
2022/01/18 03:55:18;;;;;;;8.15;2.25;;;;;;;0.84;85.48;102670.31;5034199;28;20025;-23
2022/01/18 03:57:44;;;;;;;4.28;2.20;;;;;;;0.85;85.39;102687.72;5021042;28;20079;-24
2022/01/18 04:00:15;;;;;;;7.85;2.80;;;;;;;0.85;85.06;102685.13;5017124;28;20500;-24
2022/01/18 04:02:41;;;;;;;11.38;3.03;;;;;;;0.87;85.37;102680.03;5019942;28;20044;-23
2022/01/18 04:05:08;;;;;;;9.73;2.20;;;;;;;0.88;85.08;102682.72;5023499;28;20494;-24
2022/01/18 04:07:34;;;;;;;9.77;2.90;;;;;;;0.89;85.38;102674.13;5025659;28;20033;-23
2022/01/18 04:09:59;;;;;;;9.18;3.90;;;;;;;0.92;85.05;102678.59;5023648;28;20032;-24
2022/01/18 04:12:25;;;;;;;8.88;3.50;;;;;;;0.92;85.42;102680.28;5023547;28;20413;-24
2022/01/18 04:14:51;;;;;;;8.25;3.08;;;;;;;0.91;85.35;102673.31;5025378;28;20045;-24
2022/01/18 04:17:33;;;;;;;7.93;2.90;;;;;;;0.94;85.39;102681.31;5022899;28;20037;-24
2022/01/18 04:30:57;;;;;;;7.82;2.92;;;;;;;0.99;85.38;102674.69;5023079;28;20232;-24
2022/01/18 04:33:22;;;;;;;5.40;2.63;;;;;;;0.99;85.23;102664.28;5021366;28;20037;-24
2022/01/18 04:35:48;;;;;;;7.90;2.70;;;;;;;1.01;85.35;102670.50;5020294;28;20025;-23
2022/01/18 04:38:14;;;;;;;8.52;2.63;;;;;;;1.02;85.57;102672.28;5015021;28;20029;-23
2022/01/18 04:40:43;;;;;;;4.45;2.50;;;;;;;1.02;85.16;102664.47;5023386;28;20109;-23
2022/01/18 04:48:28;;;;;;;7.07;3.28;;;;;;;1.05;85.30;102679.38;5023724;28;20459;-24
2022/01/18 04:51:10;;;;;;;6.85;2.60;;;;;;;1.06;85.37;102686.38;5023232;28;20025;-23
2022/01/18 04:53:42;;;;;;;3.92;2.17;;;;;;;1.07;85.43;102689.06;5020762;28;20064;-24
2022/01/18 04:56:14;;;;;;;9.82;3.25;;;;;;;1.07;85.13;102694.25;5020813;28;20036;-24
2022/01/18 04:58:40;;;;;;;8.27;3.10;;;;;;;1.09;85.04;102691.75;5020464;28;20026;-24
2022/01/18 05:01:07;;;;;;;10.63;2.75;;;;;;;1.09;85.40;102700.44;5018640;28;20037;-24
2022/01/18 05:03:33;;;;;;;8.68;2.67;;;;;;;1.09;85.40;102696.94;5018653;28;20048;-24
2022/01/18 05:06:03;;;;;;;6.20;2.15;;;;;;;1.09;85.28;102708.25;5019376;28;20307;-24
2022/01/18 05:08:29;;;;;;;6.30;2.40;;;;;;;1.11;85.30;102705.75;5019859;28;20028;-23
2022/01/18 05:10:57;;;;;;;4.78;2.58;;;;;;;1.12;85.59;102708.44;5023016;28;20033;-24
2022/01/18 05:21:36;;;;;;;7.07;2.47;;;;;;;1.17;85.30;102736.44;5025423;28;20032;-24
2022/01/18 05:24:02;;;;;;;8.60;3.58;;;;;;;1.17;85.58;102737.34;5023896;28;20065;-23
2022/01/18 05:26:29;;;;;;;8.18;2.65;;;;;;;1.18;85.79;102735.63;5021427;28;20168;-23
2022/01/18 05:28:57;;;;;;;5.22;2.38;;;;;;;1.20;85.52;102740.09;5021498;28;20067;-24
2022/01/18 05:31:26;;;;;;;7.03;3.00;;;;;;;1.21;85.85;102743.63;5023789;28;20156;-23
2022/01/18 05:33:52;;;;;;;7.80;2.45;;;;;;;1.22;85.42;102743.72;5023533;28;20390;-24
2022/01/18 05:36:17;;;;;;;7.53;2.38;;;;;;;1.23;85.56;102742.03;5022192;28;20025;-23
2022/01/18 05:38:43;;;;;;;7.28;2.30;;;;;;;1.23;85.72;102737.72;5018913;28;20033;-23
2022/01/18 05:41:10;;;;;;;3.67;1.95;;;;;;;1.25;85.89;102735.22;5020186;28;20028;-24
2022/01/18 05:43:37;;;;;;;4.57;2.22;;;;;;;1.26;85.86;102747.41;5022697;28;20030;-24
2022/01/18 05:46:03;;;;;;;6.07;2.42;;;;;;;1.27;85.92;102739.69;5019240;28;20026;-24
2022/01/18 05:48:29;;;;;;;5.97;2.65;;;;;;;1.29;86.08;102755.41;5018476;28;20029;-24
2022/01/18 05:50:59;;;;;;;5.07;2.38;;;;;;;1.28;85.97;102762.31;5022776;28;20037;-24
2022/01/18 05:53:30;;;;;;;4.50;2.65;;;;;;;1.31;86.15;102769.41;5022189;28;20029;-23
2022/01/18 05:55:59;;;;;;;10.82;2.45;;;;;;;1.32;86.51;102762.47;5022620;28;20025;-24
2022/01/18 05:58:25;;;;;;;6.47;2.00;;;;;;;1.32;85.86;102758.19;5019479;28;20482;-24
2022/01/18 06:00:54;;;;;;;6.35;2.45;;;;;;;1.35;86.02;102767.88;5020922;28;20037;-23
2022/01/18 06:03:36;;;;;;;9.20;2.42;;;;;;;1.35;85.93;102768.78;5019908;28;20075;-24
2022/01/18 06:08:46;;;;;;;7.03;2.50;;;;;;;1.38;86.06;102773.28;5019003;28;20067;-24
2022/01/18 06:11:12;;;;;;;8.30;2.15;;;;;;;1.40;85.91;102779.50;5023844;28;20993;-24
2022/01/18 06:13:38;;;;;;;7.55;2.60;;;;;;;1.39;86.11;102775.97;5026365;28;20466;-24
2022/01/18 06:16:04;;;;;;;4.95;2.00;;;;;;;1.41;85.48;102779.56;5025129;28;20038;-23
2022/01/18 06:18:30;;;;;;;5.60;1.90;;;;;;;1.43;85.95;102776.19;5024797;28;20097;-23
2022/01/18 06:20:58;;;;;;;4.57;2.03;;;;;;;1.44;85.99;102759.75;5023021;28;20022;-24
2022/01/18 06:23:24;;;;;;;5.55;2.20;;;;;;;1.44;85.60;102764.97;5025680;28;20026;-24
2022/01/18 06:25:50;;;;;;;5.63;2.33;;;;;;;1.46;85.68;102768.56;5022546;28;20513;-24
2022/01/18 06:28:15;;;;;;;10.15;2.63;;;;;;;1.43;85.65;102760.56;5022973;28;20049;-24
2022/01/18 06:30:41;;;;;;;7.65;2.42;;;;;;;1.47;85.61;102772.97;5025281;28;20033;-23
2022/01/18 06:33:07;;;;;;;8.68;2.92;;;;;;;1.48;85.65;102775.66;5026623;28;20676;-24
2022/01/18 06:35:33;;;;;;;6.03;2.72;;;;;;;1.50;85.69;102778.38;5021785;28;20033;-24
2022/01/18 06:37:59;;;;;;;5.30;2.40;;;;;;;1.50;85.82;102779.25;5022482;28;20504;-24
2022/01/18 06:40:25;;;;;;;8.10;3.05;;;;;;;1.52;85.76;102784.53;5021737;28;20736;-24
2022/01/18 06:42:51;;;;;;;7.20;2.78;;;;;;;1.51;85.67;102788.88;5023206;28;20083;-24
2022/01/18 06:45:17;;;;;;;8.15;3.35;;;;;;;1.54;85.76;102790.75;5021408;28;20389;-24
2022/01/18 06:47:43;;;;;;;3.53;2.35;;;;;;;1.55;85.67;102787.34;5022980;28;20378;-24
2022/01/18 06:50:12;;;;;;;11.00;4.40;;;;;;;1.56;85.85;102794.34;5023700;28;20040;-24
2022/01/18 06:52:39;;;;;;;5.28;2.75;;;;;;;1.58;85.72;102802.22;5020723;28;20040;-24
2022/01/18 06:55:07;;;;;;;10.20;3.58;;;;;;;1.58;85.82;102792.75;5020840;28;20032;-24
2022/01/18 06:57:32;;;;;;;10.65;3.20;;;;;;;1.59;85.67;102797.13;5022876;28;20501;-24
2022/01/18 06:59:58;;;;;;;11.68;3.10;;;;;;;1.60;85.60;102790.25;5026591;28;20030;-24
2022/01/18 07:02:24;;;;;;;7.65;3.42;;;;;;;1.60;85.70;102801.53;5016669;28;20025;-24
2022/01/18 07:04:50;;;;;;;10.00;3.55;;;;;;;1.61;85.81;102794.63;5024675;28;20025;-24
2022/01/18 07:07:17;;;;;;;5.68;2.53;;;;;;;1.63;85.60;102812.13;5023992;28;20378;-24
2022/01/18 07:09:44;;;;;;;6.95;2.88;;;;;;;1.64;85.52;102811.31;5023590;28;20101;-24
2022/01/18 07:12:11;;;;;;;5.00;2.10;;;;;;;1.64;85.43;102816.50;5023524;28;20030;-24
2022/01/18 07:14:39;;;;;;;5.22;2.20;;;;;;;1.65;85.49;102810.53;5020998;28;20025;-23
2022/01/18 07:17:05;;;;;;;4.25;2.03;;;;;;;1.66;85.84;102812.31;5021640;28;20080;-24
2022/01/18 07:19:32;;;;;;;7.85;2.58;;;;;;;1.66;85.74;102812.31;5025188;28;20021;-24
2022/01/18 07:21:59;;;;;;;5.53;2.40;;;;;;;1.66;85.92;102822.72;5016531;28;20544;-24
2022/01/18 07:24:37;;;;;;;6.47;2.58;;;;;;;1.67;85.62;102821.91;5022243;28;20033;-24
2022/01/18 07:27:04;;;;;;;6.05;2.13;;;;;;;1.69;85.53;102822.00;5025496;28;20033;-24
2022/01/18 07:29:30;;;;;;;4.68;2.53;;;;;;;1.69;85.98;102831.50;5017281;28;20024;-24
2022/01/18 07:31:56;;;;;;;5.43;2.83;;;;;;;1.70;85.57;102833.34;5019691;28;20029;-24
2022/01/18 07:34:21;;;;;;;7.15;3.22;;;;;;;1.71;85.62;102828.22;5019635;28;20025;-24
2022/01/18 07:36:47;;;;;;;6.28;2.28;;;;;;;1.72;85.82;102826.50;5019506;28;20533;-24
2022/01/18 07:39:13;;;;;;;6.35;2.20;;;;;;;1.72;85.84;102832.63;5021352;28;20120;-24
2022/01/18 07:41:39;;;;;;;6.50;2.10;;;;;;;1.73;85.79;102838.72;5021035;28;20029;-23
2022/01/18 07:44:05;;;;;;;5.78;2.50;;;;;;;1.74;85.86;102846.59;5022522;28;20026;-24
2022/01/18 07:46:31;;;;;;;4.95;2.13;;;;;;;1.74;85.90;102840.53;5022474;28;20037;-24
2022/01/18 07:48:56;;;;;;;4.35;2.60;;;;;;;1.76;86.05;102841.50;5020525;28;20032;-24
2022/01/18 07:51:22;;;;;;;5.45;2.13;;;;;;;1.76;85.77;102838.91;5019873;28;20029;-24
2022/01/18 07:53:48;;;;;;;5.55;2.10;;;;;;;1.77;85.89;102841.59;5020408;28;20022;-24
2022/01/18 07:56:13;;;;;;;4.10;2.20;;;;;;;1.77;85.85;102844.19;5018632;28;20064;-24
2022/01/18 07:58:39;;;;;;;5.47;2.00;;;;;;;1.79;85.79;102850.41;5020503;28;20045;-24
2022/01/18 08:01:05;;;;;;;3.42;2.03;;;;;;;1.81;85.54;102847.91;5017622;28;20036;-24
2022/01/18 08:03:31;;;;;;;4.65;2.20;;;;;;;1.81;85.79;102847.91;5024727;28;20038;-24
2022/01/18 08:05:57;;;;;;;2.97;1.80;;;;;;;1.82;85.76;102843.59;5023752;28;20040;-24
2022/01/18 08:08:23;;;;;;;3.10;2.08;;;;;;;1.82;85.67;102844.50;5019933;28;20025;-24
2022/01/18 08:10:48;;;;;;;2.85;1.98;;;;;;;1.84;85.74;102836.78;5018028;28;20026;-24
2022/01/18 08:13:14;;;;;;;5.45;2.33;;;;;;;1.85;85.67;102852.50;5023243;28;20013;-24
2022/01/18 08:15:42;;;;;;;8.80;2.63;;;;;;;1.85;85.82;102849.91;5019276;28;20445;-24
2022/01/18 08:18:14;;;;;;;4.57;2.08;;;;;;;1.87;85.76;102855.19;5018733;28;20496;-23
2022/01/18 08:20:40;;;;;;;4.32;2.30;;;;;;;1.86;85.46;102854.28;5020782;28;20039;-23
2022/01/18 08:23:06;;;;;;;6.18;2.15;;;;;;;1.89;85.78;102859.69;5022020;28;20497;-24
2022/01/18 08:25:34;;;;;;;4.70;2.05;;;;;;;1.90;85.58;102868.41;5020657;28;20022;-24
2022/01/18 08:28:01;;;;;;;6.75;2.80;;;;;;;1.92;85.40;102862.50;5021802;28;20064;-24
2022/01/18 08:30:28;;;;;;;6.38;2.33;;;;;;;1.91;85.73;102863.28;5019941;28;20020;-24
2022/01/18 08:32:55;;;;;;;5.15;2.13;;;;;;;1.94;85.72;102874.69;5020822;28;20024;-24
2022/01/18 08:35:23;;;;;;;2.65;2.03;;;;;;;1.94;85.63;102875.59;5022601;28;20420;-24
2022/01/18 08:37:49;;;;;;;3.47;1.80;;;;;;;1.96;85.65;102884.38;5024043;28;20017;-24
2022/01/18 08:40:15;;;;;;;3.45;2.00;;;;;;;1.96;85.62;102878.31;5027966;28;20061;-24
2022/01/18 08:42:41;;;;;;;4.10;2.13;;;;;;;1.97;85.72;102890.50;5025121;28;20029;-24
2022/01/18 08:45:07;;;;;;;5.63;2.50;;;;;;;1.99;85.54;102888.88;5021030;28;20032;-25
2022/01/18 08:47:34;;;;;;;2.97;2.13;;;;;;;2.00;85.56;102888.09;5026633;28;20029;-24
2022/01/18 08:50:00;;;;;;;4.50;2.08;;;;;;;2.02;85.48;102892.59;5024089;28;20030;-24
2022/01/18 08:52:25;;;;;;;3.25;2.10;;;;;;;2.03;85.21;102886.56;5023312;28;20366;-24
2022/01/18 08:54:51;;;;;;;6.88;2.88;;;;;;;2.04;85.60;102895.28;5025053;28;20017;-24
2022/01/18 08:57:17;;;;;;;4.82;2.38;;;;;;;2.05;85.55;102895.38;5023076;28;20496;-24
2022/01/18 08:59:43;;;;;;;4.28;2.70;;;;;;;2.07;85.39;102898.09;5002333;28;20037;-24
2022/01/18 09:02:11;;;;;;;3.55;2.00;;;;;;;2.08;85.66;102897.28;5023302;28;20401;-24
2022/01/18 09:04:37;;;;;;;3.35;2.13;;;;;;;2.10;85.83;102898.25;5025442;28;20068;-24
2022/01/18 09:07:08;;;;;;;5.25;3.13;;;;;;;2.11;85.68;102910.50;5025684;28;20037;-24
2022/01/18 09:09:36;;;;;;;4.20;2.60;;;;;;;2.14;85.30;102913.25;5022730;28;20025;-24
2022/01/18 09:12:02;;;;;;;4.88;2.40;;;;;;;2.15;85.51;102912.47;5024294;28;20029;-24
2022/01/18 09:14:29;;;;;;;5.90;2.63;;;;;;;2.17;85.43;102913.44;5025405;28;20145;-24
2022/01/18 09:16:55;;;;;;;5.25;2.53;;;;;;;2.21;85.57;102916.25;5023674;28;20155;-24
2022/01/18 09:19:21;;;;;;;3.35;2.05;;;;;;;2.22;85.43;102915.44;5024248;28;20036;-24
2022/01/18 09:21:48;;;;;;;4.32;2.38;;;;;;;2.24;85.39;102919.06;5024589;28;20025;-24
2022/01/18 09:24:15;;;;;;;5.18;2.63;;;;;;;2.24;85.47;102921.66;5026569;28;20041;-24
2022/01/18 09:26:41;;;;;;;7.88;3.10;;;;;;;2.29;85.37;102925.44;5022826;28;20029;-24
2022/01/18 09:29:09;;;;;;;4.88;2.50;;;;;;;2.32;85.22;102923.03;5023167;28;20030;-24
2022/01/18 09:31:39;;;;;;;4.35;2.47;;;;;;;2.35;85.64;102925.81;5022414;28;20126;-24
2022/01/18 09:34:05;;;;;;;3.20;2.15;;;;;;;2.36;85.40;102925.00;5020709;28;20222;-24
2022/01/18 09:36:31;;;;;;;3.60;2.53;;;;;;;2.38;85.31;102931.22;5020403;28;20032;-24
2022/01/18 09:38:57;;;;;;;4.43;2.45;;;;;;;2.41;85.42;102931.38;5025895;28;20025;-24
2022/01/18 09:41:28;;;;;;;5.07;3.20;;;;;;;2.43;85.22;102940.22;5023182;28;20021;-24
2022/01/18 09:43:54;;;;;;;5.05;2.72;;;;;;;2.48;85.41;102936.97;5021759;28;20047;-24
2022/01/18 09:46:22;;;;;;;3.35;2.60;;;;;;;2.50;85.32;102938.88;5026742;28;20025;-24
2022/01/18 09:48:49;;;;;;;5.50;2.83;;;;;;;2.53;85.33;102935.53;5026584;28;20025;-24
2022/01/18 09:51:15;;;;;;;5.47;2.83;;;;;;;2.55;85.39;102929.66;5023809;28;20037;-25
2022/01/18 09:53:41;;;;;;;4.13;2.58;;;;;;;2.59;85.41;102930.72;5022302;28;20025;-24
2022/01/18 09:56:06;;;;;;;4.03;2.80;;;;;;;2.61;85.43;102931.72;5025052;28;20049;-24
2022/01/18 09:58:32;;;;;;;4.63;2.88;;;;;;;2.64;85.48;102939.69;5025961;28;20469;-24
2022/01/18 10:00:58;;;;;;;4.68;2.97;;;;;;;2.67;85.42;102939.88;5026649;28;20026;-24
2022/01/18 10:03:33;;;;;;;7.07;2.70;;;;;;;2.71;85.32;102943.59;5025546;28;20480;-25
2022/01/18 10:06:00;;;;;;;7.53;3.00;;;;;;;2.72;85.07;102942.78;5032053;28;20413;-24
2022/01/18 10:08:26;;;;;;;3.35;2.50;;;;;;;2.75;85.09;102932.53;5025245;28;20029;-24
2022/01/18 10:10:57;;;;;;;4.38;2.88;;;;;;;2.79;85.10;102944.03;5029916;28;20121;-24
2022/01/18 10:13:26;;;;;;;4.80;2.78;;;;;;;2.81;85.18;102939.84;5026791;28;20041;-24
2022/01/18 10:16:08;;;;;;;5.57;2.97;;;;;;;2.84;85.50;102937.41;5026683;28;20037;-24
2022/01/18 10:18:49;;;;;;;6.28;3.65;;;;;;;2.89;85.62;102935.06;5023411;28;20030;-24
2022/01/18 10:21:28;;;;;;;4.47;2.70;;;;;;;2.91;85.85;102931.75;5026816;28;20021;-24
2022/01/18 10:24:23;;;;;;;2.78;2.40;;;;;;;2.93;85.80;102937.94;5027770;28;20120;-24
2022/01/18 10:26:50;;;;;;;6.55;2.78;;;;;;;3.02;87.11;102926.25;5025137;28;20493;-24
2022/01/18 10:29:19;;;;;;;3.67;2.65;;;;;;;3.01;86.27;102927.06;5027790;28;20029;-24
2022/01/18 10:34:27;;;;;;;7.53;2.17;;;;;;;3.10;87.11;102931.94;5019795;28;20022;-24
2022/01/18 10:36:59;;;;;;;5.72;2.80;;;;;;;3.12;87.22;102927.69;5025277;28;20111;-24
2022/01/18 10:39:34;;;;;;;3.45;1.95;;;;;;;3.15;87.02;102934.00;5026624;28;20021;-24
2022/01/18 10:42:02;;;;;;;5.22;2.50;;;;;;;3.17;86.78;102932.34;5022442;28;20040;-24
2022/01/18 10:44:31;;;;;;;6.10;2.58;;;;;;;3.25;88.03;102924.09;5025552;28;20112;-24
2022/01/18 10:46:58;;;;;;;5.88;2.63;;;;;;;3.26;88.09;102925.88;5024801;28;20025;-24
2022/01/18 10:49:34;;;;;;;5.53;2.50;;;;;;;3.31;87.87;102934.88;5023822;28;20041;-24
2022/01/18 10:52:05;;;;;;;2.88;1.98;;;;;;;3.31;87.24;102924.44;5024103;28;20018;-24
2022/01/18 10:54:41;;;;;;;5.80;2.65;;;;;;;3.33;87.45;102922.81;5024653;28;20021;-24
2022/01/18 10:57:08;;;;;;;6.68;3.00;;;;;;;3.38;87.20;102913.56;5023977;28;20052;-24
2022/01/18 10:59:37;;;;;;;4.68;2.78;;;;;;;3.39;86.92;102914.44;5025421;28;20114;-24
2022/01/18 11:02:18;;;;;;;3.60;2.30;;;;;;;3.42;86.33;102901.56;5023554;28;20056;-24
2022/01/18 11:04:52;;;;;;;4.13;2.65;;;;;;;3.44;86.11;102900.84;5021752;28;20489;-24
2022/01/18 11:07:23;;;;;;;3.53;2.45;;;;;;;3.46;86.10;102903.53;5024067;28;20533;-24
2022/01/18 11:09:50;;;;;;;5.90;2.97;;;;;;;3.51;86.16;102911.63;5022793;28;20125;-24
2022/01/18 11:12:18;;;;;;;5.40;2.30;;;;;;;3.52;86.19;102903.91;5026664;28;20032;-24
2022/01/18 11:14:46;;;;;;;4.43;2.83;;;;;;;3.55;86.11;102897.94;5024558;28;20049;-24
2022/01/18 11:17:21;;;;;;;2.95;2.30;;;;;;;3.57;85.83;102896.34;5022763;28;20436;-24
2022/01/18 11:19:49;;;;;;;4.03;3.00;;;;;;;3.62;87.00;102892.25;5022366;28;20037;-24
2022/01/18 11:22:16;;;;;;;4.97;2.50;;;;;;;3.66;86.73;102898.53;5025276;28;20022;-24
2022/01/18 11:24:43;;;;;;;5.10;2.50;;;;;;;3.68;86.41;102889.09;5023362;28;20515;-23
2022/01/18 11:27:13;;;;;;;5.43;2.80;;;;;;;3.71;86.56;102884.91;5020406;28;20473;-24
2022/01/18 11:29:43;;;;;;;4.53;2.40;;;;;;;3.74;86.04;102880.69;5021773;28;20038;-24
2022/01/18 11:32:10;;;;;;;5.18;2.33;;;;;;;3.74;86.35;102879.00;5022757;28;20032;-24
2022/01/18 11:34:55;;;;;;;3.67;2.70;;;;;;;3.77;85.61;102876.53;5022532;28;20029;-24
2022/01/18 11:37:54;;;;;;;3.63;2.55;;;;;;;3.78;85.80;102875.75;5020320;28;20625;-24
2022/01/18 11:40:20;;;;;;;5.43;2.60;;;;;;;3.82;85.69;102879.41;5025967;28;20029;-24
2022/01/18 11:42:53;;;;;;;2.92;2.45;;;;;;;3.85;85.87;102883.09;5020180;28;21584;-24
2022/01/18 11:45:24;;;;;;;4.88;2.33;;;;;;;3.87;86.32;102875.31;5020603;28;20532;-24
2022/01/18 11:48:18;;;;;;;4.43;2.88;;;;;;;3.89;85.87;102871.09;5022784;28;20036;-24
2022/01/18 11:50:45;;;;;;;4.38;2.42;;;;;;;3.90;85.40;102872.88;5021655;28;20564;-24
2022/01/18 11:53:22;;;;;;;4.93;2.38;;;;;;;3.92;85.60;102875.56;5026121;28;20053;-24
2022/01/18 11:55:48;;;;;;;5.78;2.58;;;;;;;3.95;85.80;102878.34;5022542;28;20025;-24
2022/01/18 11:58:14;;;;;;;5.43;2.22;;;;;;;3.98;85.83;102873.31;5019329;28;20034;-24
2022/01/18 12:00:56;;;;;;;4.07;2.10;;;;;;;4.02;86.17;102882.19;5020105;28;20416;-23
2022/01/18 12:03:25;;;;;;;6.35;2.25;;;;;;;4.02;85.91;102879.56;5022154;28;20045;-23
2022/01/18 12:05:51;;;;;;;4.18;2.22;;;;;;;4.04;85.68;102877.97;5022606;28;20021;-24
2022/01/18 12:08:46;;;;;;;3.70;1.90;;;;;;;4.06;85.29;102869.38;5022738;28;20033;-24
2022/01/18 12:11:33;;;;;;;6.32;2.50;;;;;;;4.09;85.72;102876.47;5011315;28;20413;-24
2022/01/18 12:14:00;;;;;;;4.65;2.15;;;;;;;4.10;85.27;102876.56;5020928;28;20025;-24
2022/01/18 12:16:29;;;;;;;3.20;2.40;;;;;;;4.12;85.09;102874.03;5018417;28;20417;-24
2022/01/18 12:19:01;;;;;;;3.42;2.08;;;;;;;4.15;85.16;102866.38;5020386;28;20045;-24
2022/01/18 12:21:29;;;;;;;3.40;1.92;;;;;;;4.17;85.05;102876.91;5024550;28;20026;-24
2022/01/18 12:23:57;;;;;;;2.80;1.73;;;;;;;4.19;85.64;102867.41;5023321;28;20029;-24
2022/01/18 12:26:32;;;;;;;5.18;2.63;;;;;;;4.23;85.28;102872.88;5024776;28;20021;-24
2022/01/18 12:36:56;;;;;;;4.28;2.40;;;;;;;4.33;85.99;102868.13;5021386;28;20084;-24
2022/01/18 12:39:23;;;;;;;5.47;2.70;;;;;;;4.34;86.03;102856.88;5022654;28;20068;-24
2022/01/18 12:41:55;;;;;;;6.82;2.38;;;;;;;4.37;85.89;102862.28;5020196;28;20104;-24
2022/01/18 12:44:22;;;;;;;4.93;2.53;;;;;;;4.38;86.31;102868.38;5021473;28;20083;-24
2022/01/18 12:46:54;;;;;;;5.43;2.72;;;;;;;4.41;85.77;102874.69;5017333;28;20026;-24
2022/01/18 12:49:20;;;;;;;4.03;2.47;;;;;;;4.42;85.64;102880.78;5019906;28;20022;-24
2022/01/18 12:51:46;;;;;;;5.82;2.47;;;;;;;4.44;85.66;102881.78;5021921;28;20075;-24
2022/01/18 12:54:12;;;;;;;3.35;2.90;;;;;;;4.47;85.56;102874.97;5015526;28;20018;-24
2022/01/18 12:56:38;;;;;;;4.10;3.38;;;;;;;4.49;85.14;102880.28;5021148;28;20436;-24
2022/01/18 12:59:04;;;;;;;4.30;3.10;;;;;;;4.49;85.09;102878.59;5024780;28;20029;-24
2022/01/18 13:01:33;;;;;;;3.13;2.20;;;;;;;4.52;85.32;102872.63;5023229;28;20029;-24